Van Horn's Hourly Summary for Sunday, October 18, 2020
Hour Temp
(f)
RH
(%)
Solar Rad.
(MJ/m2)
Rainfall
(in)
Wind
(mph)
Battery
(volts)
10/18/2020 12:00 AM 63 31 0 0 7.99 0
10/18/2020 1:00 AM 58 35 0 0 4.44 0
10/18/2020 2:00 AM 59 36 0 0 6.32 0
10/18/2020 3:00 AM 58 39 0 0 3.55 0
10/18/2020 4:00 AM 56 41 0 0 4.05 0
10/18/2020 5:00 AM 54 42 0 0 6.25 0
10/18/2020 6:00 AM 46 49 0 0 3.36 0
10/18/2020 7:00 AM 46 51 0 0 3.53 0
10/18/2020 8:00 AM 53 43 0.05 0 5.01 0
10/18/2020 9:00 AM 62 34 0.22 0 2.61 0
10/18/2020 10:00 AM 72 24 0.39 0 3.73 0
10/18/2020 11:00 AM 82 12 0.52 0 2.45 0
10/18/2020 12:00 PM 86 11 0.66 0 10.2 0
10/18/2020 1:00 PM 88 5 0.71 0 8.69 0
10/18/2020 2:00 PM 89 3 0.65 0 10.62 0
10/18/2020 3:00 PM 89 3 0.59 0 11.17 0
10/18/2020 4:00 PM 88 5 0.43 0 9.22 0
10/18/2020 5:00 PM 88 6 0.25 0 7.48 0
10/18/2020 6:00 PM 86 6 0.09 0 6.49 0
10/18/2020 7:00 PM 81 8 0 0 4.42 0
10/18/2020 8:00 PM 67 15 0 0 2.7 0
10/18/2020 9:00 PM 62 21 0 0 2.05 0
10/18/2020 10:00 PM 58 20 0 0 1.29 0
10/18/2020 11:00 PM 56 18 0 0 6.12 0
Data Summary 68 23 4.56 0.00 5.57 0.00